Airport View

Enter AWOS ICAO identifier for current METAR.

ex. KFNL

KN03 202240Z AUTO 03004KT 3SM BR OVC007 06/06 A3029 RMK AO2

20 Oct 2020 22:41

Frequency: 132.225

Phone: 607-753-9784

Other Area AWOS: KITH - K6B9 - KBGM - KSYR

TAF AMD KITH 201953Z 2020/2118 32009KT 6SM -SHRA OVC004 TEMPO 2021/2023 3SM -SHRA BR OVC011 FM202300 02006KT P6SM OVC011 FM210600 13007KT P6SM OVC015 FM210800 16010KT P6SM OVC040 FM211200 17014KT P6SM BKN060